sensor_id;sensor_type;location;lat;lon;timestamp;pressure;altitude;pressure_sealevel;temperature;humidity
46836;BME280;32573;51.290;6.926;2023-02-19T00:02:00;100368.63;;;9.97;100.00
46836;BME280;32573;51.290;6.926;2023-02-19T00:04:28;100366.88;;;9.98;100.00
46836;BME280;32573;51.290;6.926;2023-02-19T00:06:56;100368.63;;;9.97;100.00
46836;BME280;32573;51.290;6.926;2023-02-19T00:09:25;100371.22;;;9.97;100.00
46836;BME280;32573;51.290;6.926;2023-02-19T00:11:55;100368.56;;;9.96;100.00
46836;BME280;32573;51.290;6.926;2023-02-19T00:14:23;100377.25;;;9.94;100.00
46836;BME280;32573;51.290;6.926;2023-02-19T00:16:52;100365.91;;;9.94;100.00
46836;BME280;32573;51.290;6.926;2023-02-19T00:19:20;100374.63;;;9.94;100.00
46836;BME280;32573;51.290;6.926;2023-02-19T00:21:50;100374.56;;;9.93;100.00
46836;BME280;32573;51.290;6.926;2023-02-19T00:24:19;100357.13;;;9.92;100.00
46836;BME280;32573;51.290;6.926;2023-02-19T00:26:48;100355.34;;;9.91;100.00
46836;BME280;32573;51.290;6.926;2023-02-19T00:29:19;100368.38;;;9.89;100.00
46836;BME280;32573;51.290;6.926;2023-02-19T00:31:47;100357.03;;;9.89;100.00
46836;BME280;32573;51.290;6.926;2023-02-19T00:34:16;100355.22;;;9.88;100.00
46836;BME280;32573;51.290;6.926;2023-02-19T00:36:44;100350.84;;;9.87;100.00
46836;BME280;32573;51.290;6.926;2023-02-19T00:39:17;100346.44;;;9.86;100.00
46836;BME280;32573;51.290;6.926;2023-02-19T00:41:46;100351.56;;;9.83;100.00
46836;BME280;32573;51.290;6.926;2023-02-19T00:44:14;100348.13;;;9.84;100.00
46836;BME280;32573;51.290;6.926;2023-02-19T00:46:45;100343.72;;;9.83;100.00
46836;BME280;32573;51.290;6.926;2023-02-19T00:49:17;100341.19;;;9.84;100.00
46836;BME280;32573;51.290;6.926;2023-02-19T00:51:47;100336.84;;;9.85;100.00
46836;BME280;32573;51.290;6.926;2023-02-19T00:54:16;100346.44;;;9.86;100.00
46836;BME280;32573;51.290;6.926;2023-02-19T00:56:45;100334.22;;;9.85;100.00
46836;BME280;32573;51.290;6.926;2023-02-19T00:59:14;100344.59;;;9.83;100.00
46836;BME280;32573;51.290;6.926;2023-02-19T01:01:44;100344.59;;;9.83;100.00
46836;BME280;32573;51.290;6.926;2023-02-19T01:04:13;100335.88;;;9.83;100.00
46836;BME280;32573;51.290;6.926;2023-02-19T01:06:42;100335.84;;;9.81;100.00
46836;BME280;32573;51.290;6.926;2023-02-19T01:09:11;100341.03;;;9.80;100.00
46836;BME280;32573;51.290;6.926;2023-02-19T01:11:40;100331.41;;;9.79;100.00
46836;BME280;32573;51.290;6.926;2023-02-19T01:14:08;100343.63;;;9.80;100.00
46836;BME280;32573;51.290;6.926;2023-02-19T01:16:37;100330.56;;;9.80;100.00
46836;BME280;32573;51.290;6.926;2023-02-19T01:19:07;100354.03;;;9.78;100.00
46836;BME280;32573;51.290;6.926;2023-02-19T01:21:35;100348.88;;;9.80;100.00
46836;BME280;32573;51.290;6.926;2023-02-19T01:24:04;100336.63;;;9.79;100.00
46836;BME280;32573;51.290;6.926;2023-02-19T01:26:32;100330.50;;;9.78;100.00
46836;BME280;32573;51.290;6.926;2023-02-19T01:29:02;100334.91;;;9.79;100.00
46836;BME280;32573;51.290;6.926;2023-02-19T01:31:31;100332.22;;;9.78;100.00
46836;BME280;32573;51.290;6.926;2023-02-19T01:34:02;100335.72;;;9.78;100.00
46836;BME280;32573;51.290;6.926;2023-02-19T01:36:33;100335.69;;;9.77;100.00
46836;BME280;32573;51.290;6.926;2023-02-19T01:39:04;100340.94;;;9.78;100.00
46836;BME280;32573;51.290;6.926;2023-02-19T01:41:37;100328.72;;;9.77;100.00
46836;BME280;32573;51.290;6.926;2023-02-19T01:44:56;100332.22;;;9.78;100.00
46836;BME280;32573;51.290;6.926;2023-02-19T01:46:55;100330.47;;;9.77;100.00
46836;BME280;32573;51.290;6.926;2023-02-19T01:49:27;100325.25;;;9.77;100.00
46836;BME280;32573;51.290;6.926;2023-02-19T01:51:59;100335.69;;;9.77;100.00
46836;BME280;32573;51.290;6.926;2023-02-19T01:54:31;100333.91;;;9.76;100.00
46836;BME280;32573;51.290;6.926;2023-02-19T01:57:04;100330.38;;;9.74;100.00
46836;BME280;32573;51.290;6.926;2023-02-19T01:59:35;100330.38;;;9.74;100.00
46836;BME280;32573;51.290;6.926;2023-02-19T02:02:04;100339.03;;;9.72;100.00
46836;BME280;32573;51.290;6.926;2023-02-19T02:04:33;100338.22;;;9.74;100.00
46836;BME280;32573;51.290;6.926;2023-02-19T02:07:04;100340.81;;;9.74;100.00
46836;BME280;32573;51.290;6.926;2023-02-19T02:09:54;100341.72;;;9.74;100.00
46836;BME280;32573;51.290;6.926;2023-02-19T02:12:41;100346.06;;;9.74;100.00
46836;BME280;32573;51.290;6.926;2023-02-19T02:15:09;100344.31;;;9.74;100.00
46836;BME280;32573;51.290;6.926;2023-02-19T02:17:42;100336.41;;;9.72;100.00
46836;BME280;32573;51.290;6.926;2023-02-19T02:20:26;100347.75;;;9.73;100.00
46836;BME280;32573;51.290;6.926;2023-02-19T02:23:02;100346.06;;;9.74;100.00
46836;BME280;32573;51.290;6.926;2023-02-19T02:25:57;100349.47;;;9.72;100.00
46836;BME280;32573;51.290;6.926;2023-02-19T02:28:49;100339.03;;;9.72;100.00
46836;BME280;32573;51.290;6.926;2023-02-19T02:31:25;100345.13;;;9.73;100.00
46836;BME280;32573;51.290;6.926;2023-02-19T02:33:58;100339.88;;;9.71;100.00
46836;BME280;32573;51.290;6.926;2023-02-19T02:36:30;100343.38;;;9.72;100.00
46836;BME280;32573;51.290;6.926;2023-02-19T02:39:01;100347.72;;;9.71;100.00
46836;BME280;32573;51.290;6.926;2023-02-19T02:41:41;100339.88;;;9.71;100.00
46836;BME280;32573;51.290;6.926;2023-02-19T02:44:10;100349.47;;;9.72;100.00
46836;BME280;32573;51.290;6.926;2023-02-19T02:46:42;100345.09;;;9.71;100.00
46836;BME280;32573;51.290;6.926;2023-02-19T02:49:17;100342.50;;;9.71;100.00
46836;BME280;32573;51.290;6.926;2023-02-19T02:51:50;100342.50;;;9.71;100.00
46836;BME280;32573;51.290;6.926;2023-02-19T02:54:27;100352.06;;;9.71;100.00
46836;BME280;32573;51.290;6.926;2023-02-19T02:57:19;100343.31;;;9.70;100.00
46836;BME280;32573;51.290;6.926;2023-02-19T02:59:52;100351.13;;;9.69;100.00
46836;BME280;32573;51.290;6.926;2023-02-19T03:02:25;100354.63;;;9.69;100.00
46836;BME280;32573;51.290;6.926;2023-02-19T03:05:01;100347.63;;;9.68;100.00
46836;BME280;32573;51.290;6.926;2023-02-19T03:07:52;100347.63;;;9.68;100.00
46836;BME280;32573;51.290;6.926;2023-02-19T03:10:27;100365.06;;;9.69;100.00
46836;BME280;32573;51.290;6.926;2023-02-19T03:13:00;100362.47;;;9.69;100.00
46836;BME280;32573;51.290;6.926;2023-02-19T03:15:53;100352.84;;;9.68;100.00
46836;BME280;32573;51.290;6.926;2023-02-19T03:18:45;100372.84;;;9.68;100.00
46836;BME280;32573;51.290;6.926;2023-02-19T03:21:34;100364.06;;;9.66;100.00
46836;BME280;32573;51.290;6.926;2023-02-19T03:24:09;100369.28;;;9.66;100.00
46836;BME280;32573;51.290;6.926;2023-02-19T03:26:58;100366.63;;;9.64;100.00
46836;BME280;32573;51.290;6.926;2023-02-19T03:29:34;100374.50;;;9.66;100.00
46836;BME280;32573;51.290;6.926;2023-02-19T03:32:09;100378.84;;;9.65;100.00
46836;BME280;32573;51.290;6.926;2023-02-19T03:34:43;100377.97;;;9.65;100.00
46836;BME280;32573;51.290;6.926;2023-02-19T03:37:17;100375.28;;;9.63;100.00
46836;BME280;32573;51.290;6.926;2023-02-19T03:39:52;100372.69;;;9.63;100.00
46836;BME280;32573;51.290;6.926;2023-02-19T03:42:30;100390.97;;;9.63;100.00
46836;BME280;32573;51.290;6.926;2023-02-19T03:45:18;100378.75;;;9.62;100.00
46836;BME280;32573;51.290;6.926;2023-02-19T03:47:58;100386.59;;;9.62;100.00
46836;BME280;32573;51.290;6.926;2023-02-19T03:50:37;100387.44;;;9.61;100.00
46836;BME280;32573;51.290;6.926;2023-02-19T03:53:16;100389.22;;;9.62;100.00
46836;BME280;32573;51.290;6.926;2023-02-19T03:55:54;100373.47;;;9.61;100.00
46836;BME280;32573;51.290;6.926;2023-02-19T03:58:29;100392.66;;;9.61;100.00
46836;BME280;32573;51.290;6.926;2023-02-19T04:01:05;100400.53;;;9.63;100.00
46836;BME280;32573;51.290;6.926;2023-02-19T04:03:36;100394.44;;;9.62;100.00
46836;BME280;32573;51.290;6.926;2023-02-19T04:06:12;100397.91;;;9.61;100.00
46836;BME280;32573;51.290;6.926;2023-02-19T04:08:44;100391.75;;;9.61;100.00
46836;BME280;32573;51.290;6.926;2023-02-19T04:11:14;100390.88;;;9.60;100.00
46836;BME280;32573;51.290;6.926;2023-02-19T04:13:47;100409.16;;;9.60;100.00
46836;BME280;32573;51.290;6.926;2023-02-19T04:16:20;100421.34;;;9.60;100.00
46836;BME280;32573;51.290;6.926;2023-02-19T04:18:53;100411.78;;;9.60;100.00
46836;BME280;32573;51.290;6.926;2023-02-19T04:21:25;100420.47;;;9.59;100.00
46836;BME280;32573;51.290;6.926;2023-02-19T04:23:58;100413.44;;;9.58;100.00
46836;BME280;32573;51.290;6.926;2023-02-19T04:26:30;100425.59;;;9.56;100.00
46836;BME280;32573;51.290;6.926;2023-02-19T04:29:00;100429.91;;;9.56;100.00
46836;BME280;32573;51.290;6.926;2023-02-19T04:31:30;100439.44;;;9.54;100.00
46836;BME280;32573;51.290;6.926;2023-02-19T04:34:01;100437.63;;;9.53;100.00
46836;BME280;32573;51.290;6.926;2023-02-19T04:36:32;100435.00;;;9.51;100.00
46836;BME280;32573;51.290;6.926;2023-02-19T04:39:00;100432.38;;;9.51;100.00
46836;BME280;32573;51.290;6.926;2023-02-19T04:41:29;100440.06;;;9.48;100.00
46836;BME280;32573;51.290;6.926;2023-02-19T04:43:57;100448.75;;;9.47;100.00
46836;BME280;32573;51.290;6.926;2023-02-19T04:46:25;100452.19;;;9.46;100.00
46836;BME280;32573;51.290;6.926;2023-02-19T04:48:54;100461.72;;;9.44;100.00
46836;BME280;32573;51.290;6.926;2023-02-19T04:51:23;100457.31;;;9.43;100.00
46836;BME280;32573;51.290;6.926;2023-02-19T04:53:53;100446.81;;;9.41;100.00
46836;BME280;32573;51.290;6.926;2023-02-19T04:56:22;100451.97;;;9.40;100.00
46836;BME280;32573;51.290;6.926;2023-02-19T04:58:50;100454.59;;;9.40;100.00
46836;BME280;32573;51.290;6.926;2023-02-19T05:01:19;100463.28;;;9.39;100.00
46836;BME280;32573;51.290;6.926;2023-02-19T05:03:47;100467.53;;;9.37;100.00
46836;BME280;32573;51.290;6.926;2023-02-19T05:06:16;100471.91;;;9.38;100.00
46836;BME280;32573;51.290;6.926;2023-02-19T05:08:44;100480.59;;;9.37;100.00
46836;BME280;32573;51.290;6.926;2023-02-19T05:11:13;100477.88;;;9.34;100.00
46836;BME280;32573;51.290;6.926;2023-02-19T05:13:42;100478.69;;;9.33;100.00
46836;BME280;32573;51.290;6.926;2023-02-19T05:16:13;100476.03;;;9.31;100.00
46836;BME280;32573;51.290;6.926;2023-02-19T05:18:43;100494.34;;;9.31;100.00
46836;BME280;32573;51.290;6.926;2023-02-19T05:21:12;100491.66;;;9.29;100.00
46836;BME280;32573;51.290;6.926;2023-02-19T05:23:41;100494.25;;;9.29;100.00
46836;BME280;32573;51.290;6.926;2023-02-19T05:26:12;100493.38;;;9.29;100.00
46836;BME280;32573;51.290;6.926;2023-02-19T05:28:45;100502.94;;;9.28;100.00
46836;BME280;32573;51.290;6.926;2023-02-19T05:31:14;100508.16;;;9.28;100.00
46836;BME280;32573;51.290;6.926;2023-02-19T05:33:43;100515.03;;;9.26;100.00
46836;BME280;32573;51.290;6.926;2023-02-19T05:36:17;100518.53;;;9.27;100.00
46836;BME280;32573;51.290;6.926;2023-02-19T05:38:46;100515.03;;;9.26;100.00
46836;BME280;32573;51.290;6.926;2023-02-19T05:41:20;100514.09;;;9.24;100.00
46836;BME280;32573;51.290;6.926;2023-02-19T05:43:50;100516.69;;;9.24;100.00
46836;BME280;32573;51.290;6.926;2023-02-19T05:46:21;100515.81;;;9.24;100.00
46836;BME280;32573;51.290;6.926;2023-02-19T05:48:50;100525.34;;;9.23;100.00
46836;BME280;32573;51.290;6.926;2023-02-19T05:51:23;100523.56;;;9.22;100.00
46836;BME280;32573;51.290;6.926;2023-02-19T05:53:51;100529.66;;;9.21;100.00
46836;BME280;32573;51.290;6.926;2023-02-19T05:56:31;100522.69;;;9.22;100.00
46836;BME280;32573;51.290;6.926;2023-02-19T05:59:02;100539.25;;;9.22;100.00
46836;BME280;32573;51.290;6.926;2023-02-19T06:01:33;100533.94;;;9.21;100.00
46836;BME280;32573;51.290;6.926;2023-02-19T06:04:02;100531.34;;;9.21;100.00
46836;BME280;32573;51.290;6.926;2023-02-19T06:06:31;100531.31;;;9.19;100.00
46836;BME280;32573;51.290;6.926;2023-02-19T06:08:59;100543.50;;;9.20;100.00
46836;BME280;32573;51.290;6.926;2023-02-19T06:11:28;100544.34;;;9.19;100.00
46836;BME280;32573;51.290;6.926;2023-02-19T06:13:56;100538.25;;;9.19;100.00
46836;BME280;32573;51.290;6.926;2023-02-19T06:16:26;100541.66;;;9.18;100.00
46836;BME280;32573;51.290;6.926;2023-02-19T06:18:55;100540.78;;;9.17;100.00
46836;BME280;32573;51.290;6.926;2023-02-19T06:21:23;100541.66;;;9.18;100.00
46836;BME280;32573;51.290;6.926;2023-02-19T06:23:53;100556.47;;;9.17;100.00
46836;BME280;32573;51.290;6.926;2023-02-19T06:26:23;100559.91;;;9.16;100.00
46836;BME280;32573;51.290;6.926;2023-02-19T06:28:52;100550.25;;;9.14;100.00
46836;BME280;32573;51.290;6.926;2023-02-19T06:31:21;100555.31;;;9.11;100.00
46836;BME280;32573;51.290;6.926;2023-02-19T06:33:51;100571.81;;;9.10;100.00
46836;BME280;32573;51.290;6.926;2023-02-19T06:36:21;100554.44;;;9.10;100.00
46836;BME280;32573;51.290;6.926;2023-02-19T06:38:50;100579.59;;;9.08;100.00
46836;BME280;32573;51.290;6.926;2023-02-19T06:41:18;100576.97;;;9.08;100.00
46836;BME280;32573;51.290;6.926;2023-02-19T06:43:47;100589.06;;;9.06;100.00
46836;BME280;32573;51.290;6.926;2023-02-19T06:46:15;100588.94;;;9.03;100.00
46836;BME280;32573;51.290;6.926;2023-02-19T06:48:44;100591.53;;;9.01;100.00
46836;BME280;32573;51.290;6.926;2023-02-19T06:51:15;100592.28;;;8.99;100.00
46836;BME280;32573;51.290;6.926;2023-02-19T06:53:45;100593.94;;;8.97;100.00
46836;BME280;32573;51.290;6.926;2023-02-19T06:56:22;100590.44;;;8.96;100.00
46836;BME280;32573;51.290;6.926;2023-02-19T06:58:52;100600.81;;;8.95;100.00
46836;BME280;32573;51.290;6.926;2023-02-19T07:01:20;100609.47;;;8.94;100.00
46836;BME280;32573;51.290;6.926;2023-02-19T07:03:49;100607.69;;;8.93;100.00
46836;BME280;32573;51.290;6.926;2023-02-19T07:06:21;100606.78;;;8.92;100.00
46836;BME280;32573;51.290;6.926;2023-02-19T07:08:50;100627.75;;;8.94;100.00
46836;BME280;32573;51.290;6.926;2023-02-19T07:11:19;100629.44;;;8.93;100.00
46836;BME280;32573;51.290;6.926;2023-02-19T07:13:47;100630.22;;;8.91;100.00
46836;BME280;32573;51.290;6.926;2023-02-19T07:16:15;100621.50;;;8.90;100.00
46836;BME280;32573;51.290;6.926;2023-02-19T07:18:44;100633.59;;;8.88;100.00
46836;BME280;32573;51.290;6.926;2023-02-19T07:21:14;100631.88;;;8.89;100.00
46836;BME280;32573;51.290;6.926;2023-02-19T07:23:44;100641.41;;;8.88;100.00
46836;BME280;32573;51.290;6.926;2023-02-19T07:26:15;100643.13;;;8.88;100.00
46836;BME280;32573;51.290;6.926;2023-02-19T07:28:46;100649.19;;;8.87;100.00
46836;BME280;32573;51.290;6.926;2023-02-19T07:31:17;100652.69;;;8.87;100.00
46836;BME280;32573;51.290;6.926;2023-02-19T07:33:46;100657.84;;;8.85;100.00
46836;BME280;32573;51.290;6.926;2023-02-19T07:36:16;100670.09;;;8.87;100.00
46836;BME280;32573;51.290;6.926;2023-02-19T07:38:45;100675.34;;;8.88;100.00
46836;BME280;32573;51.290;6.926;2023-02-19T07:41:14;100672.69;;;8.87;100.00
46836;BME280;32573;51.290;6.926;2023-02-19T07:43:42;100675.31;;;8.87;100.00
46836;BME280;32573;51.290;6.926;2023-02-19T07:46:12;100677.91;;;8.87;100.00
46836;BME280;32573;51.290;6.926;2023-02-19T07:48:41;100673.56;;;8.87;100.00
46836;BME280;32573;51.290;6.926;2023-02-19T07:51:12;100688.34;;;8.87;100.00
46836;BME280;32573;51.290;6.926;2023-02-19T07:53:42;100697.97;;;8.88;100.00
46836;BME280;32573;51.290;6.926;2023-02-19T07:56:12;100700.56;;;8.88;100.00
46836;BME280;32573;51.290;6.926;2023-02-19T07:58:41;100703.19;;;8.88;100.00
46836;BME280;32573;51.290;6.926;2023-02-19T08:01:12;100703.19;;;8.88;100.00
46836;BME280;32573;51.290;6.926;2023-02-19T08:03:42;100704.06;;;8.88;100.00
46836;BME280;32573;51.290;6.926;2023-02-19T08:06:10;100704.00;;;8.87;100.00
46836;BME280;32573;51.290;6.926;2023-02-19T08:08:39;100712.72;;;8.87;100.00
46836;BME280;32573;51.290;6.926;2023-02-19T08:11:08;100723.25;;;8.89;100.00
46836;BME280;32573;51.290;6.926;2023-02-19T08:13:56;100718.84;;;8.88;100.00
46836;BME280;32573;51.290;6.926;2023-02-19T08:16:24;100724.94;;;8.88;100.00
46836;BME280;32573;51.290;6.926;2023-02-19T08:19:09;100729.28;;;8.88;100.00
46836;BME280;32573;51.290;6.926;2023-02-19T08:21:37;100732.78;;;8.88;100.00
46836;BME280;32573;51.290;6.926;2023-02-19T08:24:06;100733.69;;;8.89;100.00
46836;BME280;32573;51.290;6.926;2023-02-19T08:26:34;100736.44;;;8.92;100.00
46836;BME280;32573;51.290;6.926;2023-02-19T08:29:04;100744.25;;;8.92;100.00
46836;BME280;32573;51.290;6.926;2023-02-19T08:31:33;100743.44;;;8.93;100.00
46836;BME280;32573;51.290;6.926;2023-02-19T08:34:02;100747.84;;;8.94;100.00
46836;BME280;32573;51.290;6.926;2023-02-19T08:36:30;100738.34;;;8.96;100.00
46836;BME280;32573;51.290;6.926;2023-02-19T08:38:58;100740.13;;;8.97;100.00
46836;BME280;32573;51.290;6.926;2023-02-19T08:41:27;100741.91;;;8.98;100.00
46836;BME280;32573;51.290;6.926;2023-02-19T08:43:55;100743.72;;;8.99;100.00
46836;BME280;32573;51.290;6.926;2023-02-19T08:46:25;100740.25;;;9.00;100.00
46836;BME280;32573;51.290;6.926;2023-02-19T08:48:53;100738.50;;;8.99;100.00
46836;BME280;32573;51.290;6.926;2023-02-19T08:51:21;100744.66;;;9.01;100.00
46836;BME280;32573;51.290;6.926;2023-02-19T08:53:50;100738.63;;;9.02;100.00
46836;BME280;32573;51.290;6.926;2023-02-19T08:56:18;100755.25;;;9.04;100.00
46836;BME280;32573;51.290;6.926;2023-02-19T08:58:47;100760.50;;;9.05;100.00
46836;BME280;32573;51.290;6.926;2023-02-19T09:01:16;100758.78;;;9.06;100.00
46836;BME280;32573;51.290;6.926;2023-02-19T09:03:46;100754.53;;;9.08;100.00
46836;BME280;32573;51.290;6.926;2023-02-19T09:06:16;100752.88;;;9.10;100.00
46836;BME280;32573;51.290;6.926;2023-02-19T09:08:45;100754.69;;;9.11;100.00
46836;BME280;32573;51.290;6.926;2023-02-19T09:11:14;100756.47;;;9.12;100.00
46836;BME280;32573;51.290;6.926;2023-02-19T09:13:42;100761.69;;;9.12;100.00
46836;BME280;32573;51.290;6.926;2023-02-19T09:16:11;100774.75;;;9.12;100.00
46836;BME280;32573;51.290;6.926;2023-02-19T09:18:39;100773.00;;;9.13;100.00
46836;BME280;32573;51.290;6.926;2023-02-19T09:21:09;100780.94;;;9.14;100.00
46836;BME280;32573;51.290;6.926;2023-02-19T09:23:38;100788.88;;;9.17;100.00
46836;BME280;32573;51.290;6.926;2023-02-19T09:26:06;100805.53;;;9.19;100.00
46836;BME280;32573;51.290;6.926;2023-02-19T09:28:36;100785.53;;;9.20;100.00
46836;BME280;32573;51.290;6.926;2023-02-19T09:31:09;100796.84;;;9.20;100.00
46836;BME280;32573;51.290;6.926;2023-02-19T09:33:41;100793.34;;;9.20;100.00
46836;BME280;32573;51.290;6.926;2023-02-19T09:36:12;100793.28;;;9.18;100.00
46836;BME280;32573;51.290;6.926;2023-02-19T09:38:41;100795.06;;;9.19;100.00
46836;BME280;32573;51.290;6.926;2023-02-19T09:41:14;100812.53;;;9.20;100.00
46836;BME280;32573;51.290;6.926;2023-02-19T09:43:44;100793.44;;;9.21;100.00
46836;BME280;32573;51.290;6.926;2023-02-19T09:46:21;100793.44;;;9.21;100.00
46836;BME280;32573;51.290;6.926;2023-02-19T09:48:52;100797.81;;;9.22;100.00
46836;BME280;32573;51.290;6.926;2023-02-19T09:51:23;100803.88;;;9.21;100.00
46836;BME280;32573;51.290;6.926;2023-02-19T09:53:56;100810.03;;;9.23;100.00
46836;BME280;32573;51.290;6.926;2023-02-19T09:56:26;100810.88;;;9.22;100.00
46836;BME280;32573;51.290;6.926;2023-02-19T09:58:56;100823.94;;;9.22;100.00
46836;BME280;32573;51.290;6.926;2023-02-19T10:01:27;100829.09;;;9.21;100.00
46836;BME280;32573;51.290;6.926;2023-02-19T10:03:59;100825.59;;;9.20;100.00
46836;BME280;32573;51.290;6.926;2023-02-19T10:06:31;100839.53;;;9.21;100.00
46836;BME280;32573;51.290;6.926;2023-02-19T10:09:14;100848.19;;;9.20;100.00
46836;BME280;32573;51.290;6.926;2023-02-19T10:11:45;100852.53;;;9.19;100.00
46836;BME280;32573;51.290;6.926;2023-02-19T10:14:18;100861.13;;;9.17;100.00
46836;BME280;32573;51.290;6.926;2023-02-19T10:16:49;100871.56;;;9.17;100.00
46836;BME280;32573;51.290;6.926;2023-02-19T10:19:17;100885.59;;;9.19;100.00
46836;BME280;32573;51.290;6.926;2023-02-19T10:21:47;100883.00;;;9.19;100.00
46836;BME280;32573;51.290;6.926;2023-02-19T10:24:20;100883.03;;;9.20;100.00
46836;BME280;32573;51.290;6.926;2023-02-19T10:26:52;100881.41;;;9.22;100.00
46836;BME280;32573;51.290;6.926;2023-02-19T10:29:21;100890.19;;;9.24;100.00
46836;BME280;32573;51.290;6.926;2023-02-19T10:32:12;100895.47;;;9.26;100.00
46836;BME280;32573;51.290;6.926;2023-02-19T10:34:43;100905.94;;;9.26;100.00
46836;BME280;32573;51.290;6.926;2023-02-19T10:37:15;100904.16;;;9.25;100.00
46836;BME280;32573;51.290;6.926;2023-02-19T10:39:45;100904.16;;;9.25;100.00
46836;BME280;32573;51.290;6.926;2023-02-19T10:42:15;100913.75;;;9.26;100.00
46836;BME280;32573;51.290;6.926;2023-02-19T10:44:46;100915.66;;;9.28;100.00
46836;BME280;32573;51.290;6.926;2023-02-19T10:47:19;100913.97;;;9.31;100.00
46836;BME280;32573;51.290;6.926;2023-02-19T10:49:49;100901.00;;;9.32;100.00
46836;BME280;32573;51.290;6.926;2023-02-19T10:52:23;100903.69;;;9.34;100.00
46836;BME280;32573;51.290;6.926;2023-02-19T10:54:55;100915.91;;;9.35;100.00
46836;BME280;32573;51.290;6.926;2023-02-19T10:57:27;100922.88;;;9.34;100.00
46836;BME280;32573;51.290;6.926;2023-02-19T11:00:00;100922.03;;;9.35;100.00
46836;BME280;32573;51.290;6.926;2023-02-19T11:02:30;100927.25;;;9.35;100.00
46836;BME280;32573;51.290;6.926;2023-02-19T11:05:15;100921.13;;;9.35;100.00
46836;BME280;32573;51.290;6.926;2023-02-19T11:07:47;100926.38;;;9.35;100.00
46836;BME280;32573;51.290;6.926;2023-02-19T11:10:22;100935.03;;;9.34;100.00
46836;BME280;32573;51.290;6.926;2023-02-19T11:12:54;100945.50;;;9.34;100.00
46836;BME280;32573;51.290;6.926;2023-02-19T11:15:26;100943.69;;;9.33;100.00
46836;BME280;32573;51.290;6.926;2023-02-19T11:17:58;100928.00;;;9.33;100.00
46836;BME280;32573;51.290;6.926;2023-02-19T11:20:28;100937.56;;;9.32;100.00
46836;BME280;32573;51.290;6.926;2023-02-19T11:23:04;100940.25;;;9.34;100.00
46836;BME280;32573;51.290;6.926;2023-02-19T11:25:43;100937.66;;;9.34;100.00
46836;BME280;32573;51.290;6.926;2023-02-19T11:28:24;100935.97;;;9.36;100.00
46836;BME280;32573;51.290;6.926;2023-02-19T11:31:12;100943.06;;;9.38;100.00
46836;BME280;32573;51.290;6.926;2023-02-19T11:33:43;100934.41;;;9.39;100.00
46836;BME280;32573;51.290;6.926;2023-02-19T11:36:24;100926.63;;;9.41;100.00
46836;BME280;32573;51.290;6.926;2023-02-19T11:39:00;100923.22;;;9.42;100.00
46836;BME280;32573;51.290;6.926;2023-02-19T11:41:46;100918.09;;;9.45;100.00
46836;BME280;32573;51.290;6.926;2023-02-19T11:44:27;100925.28;;;9.49;100.00
46836;BME280;32573;51.290;6.926;2023-02-19T11:50:02;100912.34;;;9.52;100.00
46836;BME280;32573;51.290;6.926;2023-02-19T11:52:40;100923.63;;;9.51;100.00
46836;BME280;32573;51.290;6.926;2023-02-19T11:55:16;100921.59;;;9.45;100.00
46836;BME280;32573;51.290;6.926;2023-02-19T11:57:54;100915.38;;;9.42;100.00
46836;BME280;32573;51.290;6.926;2023-02-19T12:00:28;100917.84;;;9.39;100.00
46836;BME280;32573;51.290;6.926;2023-02-19T12:03:23;100923.88;;;9.38;100.00
46836;BME280;32573;51.290;6.926;2023-02-19T12:06:12;100921.34;;;9.39;100.00
46836;BME280;32573;51.290;6.926;2023-02-19T12:09:09;100920.50;;;9.40;100.00
46836;BME280;32573;51.290;6.926;2023-02-19T12:11:52;100924.97;;;9.43;100.00
46836;BME280;32573;51.290;6.926;2023-02-19T12:17:37;100923.63;;;9.51;100.00
46836;BME280;32573;51.290;6.926;2023-02-19T12:20:17;100928.97;;;9.54;100.00
46836;BME280;32573;51.290;6.926;2023-02-19T12:22:53;100936.88;;;9.56;100.00
46836;BME280;32573;51.290;6.926;2023-02-19T12:25:46;100945.75;;;9.59;100.00
46836;BME280;32573;51.290;6.926;2023-02-19T12:28:38;100947.63;;;9.62;100.00
46836;BME280;32573;51.290;6.926;2023-02-19T12:31:26;100948.56;;;9.64;100.00
46836;BME280;32573;51.290;6.926;2023-02-19T12:34:18;100943.41;;;9.65;100.00
46836;BME280;32573;51.290;6.926;2023-02-19T12:36:59;100946.97;;;9.67;100.00
46836;BME280;32573;51.290;6.926;2023-02-19T12:39:38;100942.63;;;9.68;100.00
46836;BME280;32573;51.290;6.926;2023-02-19T12:42:13;100943.56;;;9.68;100.00
46836;BME280;32573;51.290;6.926;2023-02-19T12:44:49;100944.44;;;9.69;100.00
46836;BME280;32573;51.290;6.926;2023-02-19T12:47:22;100942.72;;;9.69;100.00
46836;BME280;32573;51.290;6.926;2023-02-19T12:50:00;100941.06;;;9.71;100.00
46836;BME280;32573;51.290;6.926;2023-02-19T12:52:33;100947.28;;;9.74;100.00
46836;BME280;32573;51.290;6.926;2023-02-19T12:55:16;100951.66;;;9.75;100.00
46836;BME280;32573;51.290;6.926;2023-02-19T12:57:46;100942.03;;;9.74;100.00
46836;BME280;32573;51.290;6.926;2023-02-19T13:00:27;100942.03;;;9.74;100.00
46836;BME280;32573;51.290;6.926;2023-02-19T13:02:59;100942.81;;;9.71;100.00
46836;BME280;32573;51.290;6.926;2023-02-19T13:05:39;100954.16;;;9.71;100.00
46836;BME280;32573;51.290;6.926;2023-02-19T13:08:14;100955.91;;;9.72;100.00
46836;BME280;32573;51.290;6.926;2023-02-19T13:10:46;100943.69;;;9.71;100.00
46836;BME280;32573;51.290;6.926;2023-02-19T13:13:19;100947.09;;;9.70;100.00
46836;BME280;32573;51.290;6.926;2023-02-19T13:15:55;100954.91;;;9.69;100.00
46836;BME280;32573;51.290;6.926;2023-02-19T13:18:29;100952.28;;;9.69;100.00
46836;BME280;32573;51.290;6.926;2023-02-19T13:20:59;100951.44;;;9.70;100.00
46836;BME280;32573;51.290;6.926;2023-02-19T13:23:29;100945.41;;;9.71;100.00
46836;BME280;32573;51.290;6.926;2023-02-19T13:26:39;100941.06;;;9.71;100.00